Time;durP1;ratioP1;P1;durP2;ratioP2;P2;SDS_P1;SDS_P2;PMS_P1;PMS_P2;Temp;Humidity;BMP_temperature;BMP_pressure;BME280_temperature;BME280_humidity;BME280_pressure;Samples;Min_cycle;Max_cycle;Signal;HPM_P1;HPM_P2
2021/10/15 06:17:17;;;;;;;;;33.00;28.25;;;;;12.62;60.76;101473.19;5852461;24;45384;-63
2021/10/15 08:02:22;;;;;;;;;37.75;34.50;;;;;12.72;61.91;101454.09;6106450;22;45899;-69
2021/10/15 10:26:00;;;;;;;;;23.50;20.00;;;;;15.04;57.63;101537.59;6279090;22;45685;-64
2021/10/15 10:31:28;;;;;;;;;19.00;15.50;;;;;15.25;57.85;101549.31;6264481;22;45354;-63
2021/10/15 10:34:39;;;;;;;;;;;;;;;;;;;;;
2021/10/15 10:37:40;;;;;;;;;;;;;;;;;;;;;
2021/10/15 10:40:32;;;;;;;;;23.00;22.00;;;;;15.54;57.59;101565.16;6269013;22;69893;-64
2021/10/15 10:43:51;;;;;;;;;;;;;;;;;;;;;
2021/10/15 10:46:30;;;;;;;;;29.25;24.25;;;;;15.60;58.15;101561.34;6272521;22;73955;-64
2021/10/15 10:53:13;;;;;;;;;;;;;;;;;;;;;
2021/10/15 10:56:32;;;;;;;;;;;;;;;;;;;;;
2021/10/15 10:59:30;;;;;;;;;28.25;22.75;;;;;15.77;58.11;101566.09;6275707;22;75379;-64
2021/10/15 11:02:15;;;;;;;;;;;;;;;;;;;;;
2021/10/15 11:04:46;;;;;;;;;26.50;23.00;;;;;15.89;57.88;101572.78;6277284;22;68928;-64
2021/10/15 11:07:24;;;;;;;;;23.75;23.25;;;;;15.82;57.95;101555.13;6277340;22;45358;-66
2021/10/15 11:10:41;;;;;;;;;;;;;;;;;;;;;
2021/10/15 11:37:25;;;;;;;;;;;;;;;;;;;;;
2021/10/15 11:40:37;;;;;;;;;25.75;24.25;;;;;16.11;57.77;101514.38;6245736;22;73325;-66
2021/10/15 11:43:16;;;;;;;;;26.25;23.75;;;;;16.27;57.59;101530.75;6242246;22;45444;-66
2021/10/15 11:45:48;;;;;;;;;22.00;19.75;;;;;16.22;57.54;101511.22;6278050;22;45177;-67
2021/10/15 11:48:40;;;;;;;;;26.75;23.75;;;;;16.30;57.27;101509.09;6249798;22;47102;-66
2021/10/15 14:50:31;;;;;;;;;;;;;;;;;;;;;
2021/10/15 14:56:39;;;;;;;;;10.50;9.50;;;;;17.96;54.98;101470.63;6210941;22;46394;-66
2021/10/15 14:59:43;;;;;;;;;;;;;;;;;;;;;
2021/10/15 15:09:20;;;;;;;;;;;;;;;;;;;;;
2021/10/15 15:12:29;;;;;;;;;;;;;;;;;;;;;
2021/10/15 17:14:48;;;;;;;;;;;;;;;;;;;;;
2021/10/15 17:27:52;;;;;;;;;8.00;6.50;;;;;17.51;57.51;101534.06;6001795;23;45733;-66
2021/10/15 17:31:07;;;;;;;;;;;;;;;;;;;;;
2021/10/15 17:34:25;;;;;;;;;;;;;;;;;;;;;
2021/10/15 17:40:59;;;;;;;;;10.25;9.00;;;;;17.55;57.67;101546.47;6167662;23;45470;-64
2021/10/15 17:43:57;;;;;;;;;;;;;;;;;;;;;
2021/10/15 17:47:04;;;;;;;;;;;;;;;;;;;;;
2021/10/15 17:50:16;;;;;;;;;9.50;9.00;;;;;17.63;57.38;101558.72;6175932;23;75897;-64
2021/10/15 17:53:21;;;;;;;;;;;;;;;;;;;;;
2021/10/15 17:56:12;;;;;;;;;;;;;;;;;;;;;
2021/10/15 17:59:36;;;;;;;;;9.75;7.50;;;;;17.52;57.84;101552.00;6182570;23;71998;-64
2021/10/15 18:02:40;;;;;;;;;;;;;;;;;;;;;
2021/10/15 18:05:28;;;;;;;;;;;;;;;;;;;;;
2021/10/15 18:11:44;;;;;;;;;;;;;;;;;;;;;
2021/10/15 18:14:52;;;;;;;;;;;;;;;;;;;;;
2021/10/15 18:21:06;;;;;;;;;14.75;13.00;;;;;17.32;58.03;101562.88;6260866;22;45470;-64
2021/10/15 18:24:10;;;;;;;;;;;;;;;;;;;;;
2021/10/15 18:27:15;;;;;;;;;;;;;;;;;;;;;
2021/10/15 18:33:45;;;;;;;;;19.50;18.00;;;;;17.11;58.42;101538.69;6257537;22;45510;-64
2021/10/15 18:39:35;;;;;;;;;;;;;;;;;;;;;
2021/10/15 18:45:59;;;;;;;;;;;;;;;;;;;;;
2021/10/15 18:49:04;;;;;;;;;;;;;;;;;;;;;
2021/10/15 18:57:57;;;;;;;;;17.00;17.00;;;;;17.23;58.60;101577.69;6256512;22;45540;-65
2021/10/15 19:00:44;;;;;;;;;;;;;;;;;;;;;
2021/10/15 19:03:55;;;;;;;;;;;;;;;;;;;;;
2021/10/15 19:06:42;;;;;;;;;;;;;;;;;;;;;
2021/10/15 19:10:01;;;;;;;;;;;;;;;;;;;;;
2021/10/15 19:12:53;;;;;;;;;;;;;;;;;;;;;
2021/10/15 19:16:18;;;;;;;;;18.00;18.00;;;;;17.05;59.02;101584.81;6276716;22;75827;-64
2021/10/15 19:22:29;;;;;;;;;;;;;;;;;;;;;
2021/10/15 19:25:43;;;;;;;;;;;;;;;;;;;;;
2021/10/15 19:28:39;;;;;;;;;;;;;;;;;;;;;
2021/10/15 19:34:48;;;;;;;;;;;;;;;;;;;;;
2021/10/15 19:40:55;;;;;;;;;;;;;;;;;;;;;
2021/10/15 19:44:00;;;;;;;;;22.00;20.50;;;;;16.92;60.83;101622.25;6271860;22;73154;-64
2021/10/15 19:46:50;;;;;;;;;18.25;18.00;;;;;16.90;60.61;101623.28;6276520;22;45509;-64
2021/10/15 19:50:15;;;;;;;;;21.50;21.25;;;;;16.84;61.02;101624.41;6265243;22;45439;-64
2021/10/15 19:53:13;;;;;;;;;18.50;18.50;;;;;16.92;60.54;101642.97;6271765;22;47065;-64
2021/10/15 19:59:40;;;;;;;;;;;;;;;;;;;;;
2021/10/15 20:03:03;;;;;;;;;;;;;;;;;;;;;
2021/10/15 20:06:22;;;;;;;;;;;;;;;;;;;;;
2021/10/15 20:08:36;;;;;;;;;18.75;17.00;;;;;16.74;61.45;101647.31;6271763;22;45705;-64
2021/10/15 20:11:02;;;;;;;;;19.25;18.75;;;;;16.74;61.65;101647.31;6277782;22;45387;-64
2021/10/15 20:13:27;;;;;;;;;18.00;18.00;;;;;16.73;61.74;101646.44;6277889;22;45324;-64
2021/10/15 20:15:53;;;;;;;;;16.50;16.50;;;;;16.73;62.04;101645.56;6277817;22;45300;-64
2021/10/15 20:18:18;;;;;;;;;13.75;13.75;;;;;16.68;61.85;101641.25;6278014;22;45327;-64
2021/10/15 20:20:44;;;;;;;;;20.50;17.50;;;;;16.70;61.96;101643.88;6278268;22;45295;-64
2021/10/15 20:23:16;;;;;;;;;16.75;16.75;;;;;16.75;62.08;101651.78;6248755;22;45418;-64
2021/10/15 20:25:43;;;;;;;;;17.75;17.25;;;;;16.76;61.71;101646.31;6277580;22;45356;-64
2021/10/15 20:28:08;;;;;;;;;14.50;14.50;;;;;16.78;61.67;101646.25;6278223;22;45176;-64
2021/10/15 20:30:34;;;;;;;;;19.00;18.00;;;;;16.75;61.87;101632.91;6250408;22;45485;-64
2021/10/15 20:32:59;;;;;;;;;16.25;15.00;;;;;16.78;61.85;101640.84;6277326;22;45306;-64
2021/10/15 20:35:25;;;;;;;;;29.25;24.50;;;;;16.83;61.95;101653.19;6277843;22;46078;-64
2021/10/15 20:37:50;;;;;;;;;23.75;23.00;;;;;16.79;61.93;101648.88;6277897;22;45200;-64
2021/10/15 20:40:15;;;;;;;;;22.50;21.00;;;;;16.74;61.82;101652.69;6277845;22;45415;-64
2021/10/15 20:42:41;;;;;;;;;22.75;22.75;;;;;16.73;62.20;101650.97;6278046;22;45156;-64
2021/10/15 20:45:06;;;;;;;;;23.25;22.75;;;;;16.70;62.11;101659.19;6251473;22;47196;-64
2021/10/15 20:47:37;;;;;;;;;24.50;21.25;;;;;16.67;62.24;101654.78;6278732;22;45195;-64
2021/10/15 20:50:03;;;;;;;;;20.00;20.00;;;;;16.67;62.15;101658.38;6278745;22;45286;-65
2021/10/15 20:52:29;;;;;;;;;25.00;23.50;;;;;16.65;62.27;101659.38;6277732;22;45372;-65
2021/10/15 20:54:54;;;;;;;;;22.00;21.50;;;;;16.66;62.49;101661.13;6275644;22;45355;-65
2021/10/15 20:57:20;;;;;;;;;23.25;22.00;;;;;16.61;62.31;101655.94;6274171;22;45470;-62
2021/10/15 20:59:45;;;;;;;;;19.00;17.50;;;;;16.64;62.36;101663.03;6273711;22;45368;-65
2021/10/15 21:02:10;;;;;;;;;23.00;23.00;;;;;16.58;62.56;101656.06;6274015;22;45395;-64
2021/10/15 21:04:36;;;;;;;;;27.75;22.50;;;;;16.57;62.42;101657.03;6246034;22;47056;-65
2021/10/15 21:07:02;;;;;;;;;23.00;22.00;;;;;16.54;62.48;101661.66;6274286;22;45409;-64
2021/10/15 21:09:27;;;;;;;;;24.50;23.50;;;;;16.58;62.43;101668.69;6273203;22;45364;-64
2021/10/15 21:11:52;;;;;;;;;21.75;19.50;;;;;16.53;62.76;101673.38;6273811;22;45932;-63
2021/10/15 21:14:18;;;;;;;;;21.50;18.50;;;;;16.45;62.77;101668.31;6273845;22;45617;-63
2021/10/15 21:16:43;;;;;;;;;19.75;18.50;;;;;16.45;63.11;101679.09;6273860;22;45320;-63
2021/10/15 21:19:09;;;;;;;;;21.50;21.50;;;;;16.41;63.04;101675.66;6274293;22;45734;-63
2021/10/15 21:21:34;;;;;;;;;23.75;22.25;;;;;16.42;63.15;101672.03;6273940;22;45452;-63
2021/10/15 21:24:00;;;;;;;;;22.25;22.25;;;;;16.44;63.27;101686.31;6245465;22;48227;-63
2021/10/15 21:26:26;;;;;;;;;19.25;19.25;;;;;16.39;63.52;101673.94;6273786;22;45625;-64
2021/10/15 21:28:51;;;;;;;;;23.75;23.00;;;;;16.38;63.44;101673.09;6274407;22;45888;-64
2021/10/15 21:31:17;;;;;;;;;19.50;19.50;;;;;16.41;63.37;101682.88;6277811;22;45395;-64
2021/10/15 21:33:42;;;;;;;;;23.75;22.25;;;;;16.43;63.59;101679.16;6250881;22;48160;-64
2021/10/15 21:36:08;;;;;;;;;20.00;19.50;;;;;16.38;63.65;101677.59;6278752;22;45390;-64
2021/10/15 21:38:33;;;;;;;;;23.75;21.00;;;;;16.40;63.84;101676.59;6278603;22;45300;-64
2021/10/15 21:40:59;;;;;;;;;20.00;19.00;;;;;16.41;63.50;101680.19;6279054;22;45481;-64
2021/10/15 21:43:24;;;;;;;;;23.00;22.50;;;;;16.40;63.59;101673.88;6278079;22;46243;-64
2021/10/15 21:45:49;;;;;;;;;23.75;23.75;;;;;16.38;63.74;101677.59;6278729;22;45372;-64
2021/10/15 21:48:18;;;;;;;;;20.75;20.75;;;;;16.40;63.64;101678.41;6251387;22;45303;-64
2021/10/15 21:50:43;;;;;;;;;24.75;23.00;;;;;16.40;63.67;101681.97;6278270;22;45150;-64
2021/10/15 21:53:09;;;;;;;;;26.00;25.25;;;;;16.47;63.52;101687.97;6276978;22;45918;-64
2021/10/15 21:55:34;;;;;;;;;22.50;22.00;;;;;16.46;63.57;101686.25;6277512;22;45197;-64
2021/10/15 21:57:59;;;;;;;;;27.25;25.75;;;;;16.46;63.90;101691.63;6279007;22;45476;-64
2021/10/15 22:00:27;;;;;;;;;25.50;23.25;;;;;16.48;63.82;101690.63;6278343;22;45570;-64
2021/10/15 22:02:56;;;;;;;;;19.50;19.50;;;;;16.51;63.67;101695.00;6278421;22;45338;-64
2021/10/15 22:05:26;;;;;;;;;17.75;17.75;;;;;16.56;63.64;101700.22;6278672;22;45399;-64
2021/10/15 22:07:52;;;;;;;;;24.25;22.00;;;;;16.58;63.57;101693.81;6251149;22;45293;-64
2021/10/15 22:10:18;;;;;;;;;23.50;21.50;;;;;16.60;63.62;101691.91;6278321;22;45196;-64
2021/10/15 22:12:44;;;;;;;;;23.75;23.25;;;;;16.54;63.80;101686.81;6278471;22;46048;-64
2021/10/15 22:15:11;;;;;;;;;21.50;21.50;;;;;16.59;63.43;101695.56;6278934;22;45209;-65
2021/10/15 22:17:36;;;;;;;;;24.25;20.50;;;;;16.52;63.51;101683.28;6278425;22;45324;-64
2021/10/15 22:20:02;;;;;;;;;21.75;20.75;;;;;16.61;63.78;101698.19;6278995;22;45239;-64
2021/10/15 22:22:27;;;;;;;;;22.50;20.50;;;;;16.59;63.48;101698.25;6277311;22;46231;-64
2021/10/15 22:24:53;;;;;;;;;23.00;23.00;;;;;16.59;63.55;101700.06;6278603;22;45167;-64
2021/10/15 22:27:18;;;;;;;;;28.75;27.25;;;;;16.57;63.50;101702.84;6251010;22;45214;-64
2021/10/15 22:29:44;;;;;;;;;23.50;20.25;;;;;16.54;63.64;101692.19;6278890;22;45153;-64
2021/10/15 22:32:09;;;;;;;;;19.50;18.50;;;;;16.56;63.44;101705.59;6278398;22;45266;-64
2021/10/15 22:34:35;;;;;;;;;23.50;23.50;;;;;16.53;63.20;101690.44;6278803;22;45168;-64
2021/10/15 22:37:00;;;;;;;;;28.50;24.25;;;;;16.53;63.58;101698.50;6251037;22;45291;-64
2021/10/15 22:39:26;;;;;;;;;23.75;21.25;;;;;16.50;63.16;101704.03;6251042;22;45564;-64
2021/10/15 22:41:51;;;;;;;;;20.50;17.75;;;;;16.48;63.26;101703.22;6278520;22;45253;-64
2021/10/15 22:44:16;;;;;;;;;22.00;19.25;;;;;16.45;63.53;101695.25;6278175;22;45223;-64
2021/10/15 22:46:42;;;;;;;;;24.25;22.50;;;;;16.41;63.46;101699.91;6278203;22;45438;-64
2021/10/15 22:49:07;;;;;;;;;19.50;15.75;;;;;16.37;63.28;101692.91;6278547;22;45283;-64
2021/10/15 22:51:32;;;;;;;;;23.25;22.00;;;;;16.37;63.35;101697.41;6250401;22;48192;-64
2021/10/15 22:53:59;;;;;;;;;19.75;18.75;;;;;16.38;63.60;101705.41;6250264;22;45303;-64
2021/10/15 22:56:24;;;;;;;;;16.00;14.50;;;;;16.36;63.21;101706.44;6278402;22;45263;-64
2021/10/15 22:58:51;;;;;;;;;20.75;20.75;;;;;16.35;63.22;101710.94;6279003;22;45255;-64
2021/10/15 23:01:18;;;;;;;;;19.50;19.50;;;;;16.35;63.36;101710.06;6278098;22;45968;-64
2021/10/15 23:03:44;;;;;;;;;23.00;22.25;;;;;16.30;63.28;101694.97;6278073;22;45259;-65
2021/10/15 23:06:10;;;;;;;;;18.25;18.25;;;;;16.34;63.10;101698.41;6278366;22;45088;-64
2021/10/15 23:08:36;;;;;;;;;22.75;17.75;;;;;16.33;63.12;101703.88;6278284;22;45374;-64
2021/10/15 23:11:02;;;;;;;;;21.00;19.00;;;;;16.31;63.28;101693.16;6277600;22;45270;-64
2021/10/15 23:13:27;;;;;;;;;26.75;20.25;;;;;16.26;63.20;101698.72;6278517;22;45239;-64
2021/10/15 23:15:53;;;;;;;;;17.50;17.25;;;;;16.20;63.11;101690.88;6278212;22;45373;-64
2021/10/15 23:18:18;;;;;;;;;19.75;19.75;;;;;16.22;63.09;101698.91;6278142;22;45248;-64
2021/10/15 23:20:43;;;;;;;;;20.50;17.25;;;;;16.16;63.21;101691.97;6278278;22;46169;-64
2021/10/15 23:23:08;;;;;;;;;15.50;15.50;;;;;16.14;63.19;101684.88;6277023;22;45240;-64
2021/10/15 23:25:34;;;;;;;;;18.75;16.00;;;;;16.11;63.18;101689.44;6278409;22;45355;-64
2021/10/15 23:27:59;;;;;;;;;15.00;14.75;;;;;16.11;63.01;101686.75;6278560;22;45290;-64
2021/10/15 23:30:25;;;;;;;;;17.25;17.00;;;;;16.11;63.05;101694.84;6278330;22;45327;-65
2021/10/15 23:32:50;;;;;;;;;17.50;16.25;;;;;16.11;63.13;101692.13;6277674;22;45164;-64
2021/10/15 23:35:15;;;;;;;;;18.00;16.25;;;;;16.10;63.09;101701.19;6278600;22;45064;-64
2021/10/15 23:37:41;;;;;;;;;15.75;15.50;;;;;16.08;63.00;101703.03;6278446;22;45248;-64
2021/10/15 23:40:07;;;;;;;;;13.25;13.25;;;;;16.10;63.03;101701.19;6278232;22;45394;-64
2021/10/15 23:42:32;;;;;;;;;14.75;14.75;;;;;16.08;63.05;101702.16;6278088;22;45070;-64
2021/10/15 23:44:58;;;;;;;;;17.75;16.50;;;;;16.08;62.87;101702.16;6278142;22;45216;-64
2021/10/15 23:47:23;;;;;;;;;11.50;11.50;;;;;16.09;62.81;101701.22;6249914;22;45870;-64
2021/10/15 23:49:49;;;;;;;;;14.00;14.00;;;;;16.09;62.62;101703.94;6278122;22;45977;-64
2021/10/15 23:52:14;;;;;;;;;14.00;13.25;;;;;16.07;62.96;101706.69;6277022;22;45190;-64
2021/10/15 23:54:39;;;;;;;;;11.75;11.50;;;;;16.05;62.83;101713.91;6277214;22;45464;-64
2021/10/15 23:57:05;;;;;;;;;13.00;12.00;;;;;16.05;62.76;101716.63;6278051;22;45110;-64
2021/10/15 23:59:30;;;;;;;;;14.25;11.75;;;;;16.03;62.48;101717.63;6278164;22;45295;-64
